Weather, June 7, 2001 (JST)

2001/06/07 15:30 UTC Chitose RJCC 08001KT 9999 FEW010 11/09 Q1014

2001/06/07 15:00 UTC UHPP METAR 071500Z 00000MPS 5000 BR OVC015 06/06 Q1024 NOSIG RMK QFE 764 SC07

2001/06/07 03:44 UTC PASY 070344Z 10011KT 4SM BR SCT005 OVC012 06/04 A3020 RMK LAST

2001/06/06 23:50 UTC PADK 062350Z 02005KT 7SM VCFG FEW002 FEW020 OVC050 08/06 A3021 RMK VCFG SW +NW VSBY LWR SW+NW

2001/06/07 15:35 UTC PADU 071535Z 19005KT 10SM OVC014 06/02 A3000 RMK AO1 1452 WEA HZ NE-SE

2001/06/07 15:35 UTC PACD 071535Z 03007KT 1 1/2SM -RA BR BKN003 OVC007 06/06 A3005 RMK AO2 RAB04 CIG 001V005 P0002

2001/06/03 07:55 UTC PASA 030755Z AUTO 27012KT M1/4SM OVC001 M01/M02 A2994 RMK AO1

2001/06/07 15:46 UTC PASN 071546Z 04013KT 1 1/2SM BR OVC003 02/02 A3005 RMK AO2 RAE27DZB27E34 P0000

2001/06/07 15:40 UTC PAPB 071540Z AUTO 04006KT 1 3/4SM BR SCT003 SCT019 OVC025 03/02 A3005 RMK AO2 TSNO

visible light

Water Vapor

6/7 14:58 Z Nexrad

@

@

Ads by TOK2